Adelaide Lucilia — CUEZ7 — position and weather

sailwx.info

Track history (hours):
 
Tides and Currents Weather Stations Pressure Air Temp Water Temp Dewpoint Dewpoint Depression Visibility Wind Speed Wind Dir Waves Ship Positions

Adelaide Lucilia

Last reported at 2017-Sep-08 04:13 UTC. Time now 2017-Sep-21 01:23 UTC.
Position N 40°39' W 009°01'.
Warning: this ship's position is 12 days out of date.

Length 20 m.

Type: Fishing. MMSI: 263412870.

Date/timePositionNaut miles runAvg speedWind from/ knotsBaromVisibWave heightAir tempDewpointWater temp
2017-Sep-08 04:13N 40°39' W 009°01'12 6.0
2017-Sep-08 02:17N 40°27' W 008°59'18 6.2
2017-Sep-07 23:25N 40°10' W 008°55'2 5.4
2017-Sep-07 22:59N 40°09' W 008°53'11 3.2
2017-Sep-07 19:25N 40°08' W 009°07'3 6.8
2017-Sep-07 19:00N 40°08' W 009°11'3 6.4
2017-Sep-07 18:30N 40°08' W 009°15'3 6.6
2017-Sep-07 18:00N 40°07' W 009°20'3 6.6
2017-Sep-07 17:30N 40°07' W 009°24'3 6.5
2017-Sep-07 17:00N 40°07' W 009°28'3 6.4
2017-Sep-07 16:30N 40°07' W 009°32'3 5.6
2017-Sep-07 16:00N 40°07' W 009°36'0 0.7
2017-Sep-07 15:30N 40°06' W 009°36'1 1.1
2017-Sep-07 15:00N 40°06' W 009°36'1 1.2
2017-Sep-07 14:24N 40°05' W 009°36'1 1.2
2017-Sep-07 13:56N 40°05' W 009°36'1 1.1
2017-Sep-07 13:29N 40°04' W 009°36'0 1.0
2017-Sep-07 13:00N 40°04' W 009°36'0 0.9
2017-Sep-07 12:30N 40°03' W 009°36'0 1.0
2017-Sep-07 12:00N 40°03' W 009°36'1 1.0
2017-Sep-07 11:29N 40°02' W 009°36'0 1.0
2017-Sep-07 11:00N 40°02' W 009°36'1 1.0
2017-Sep-07 10:30N 40°01' W 009°36'0 1.0
2017-Sep-07 10:00N 40°01' W 009°36'1 2.5
2017-Sep-07 09:26N 40°02' W 009°37'2 3.8
2017-Sep-07 08:59N 40°03' W 009°38'4 0.6
2017-Sep-07 02:07N 40°08' W 009°37'0 3.4
2017-Sep-07 01:59N 40°08' W 009°37'  
Track history (hours):
 
Tides and Currents Weather Stations Pressure Air Temp Water Temp Dewpoint Dewpoint Depression Visibility Wind Speed Wind Dir Waves Ship Positions

Adelaide Lucilia

Last reported at 2017-Sep-08 04:13 UTC. Time now 2017-Sep-21 01:23 UTC.
Position N 40°39' W 009°01'.
Warning: this ship's position is 12 days out of date.

Length 20 m.

Type: Fishing. MMSI: 263412870.

Date/timePositionNaut miles runAvg speedWind from/ knotsBaromVisibWave heightAir tempDewpointWater temp
2017-Sep-08 04:13N 40°39' W 009°01'12 6.0
2017-Sep-08 02:17N 40°27' W 008°59'18 6.2
2017-Sep-07 23:25N 40°10' W 008°55'2 5.4
2017-Sep-07 22:59N 40°09' W 008°53'11 3.2
2017-Sep-07 19:25N 40°08' W 009°07'3 6.8
2017-Sep-07 19:00N 40°08' W 009°11'3 6.4
2017-Sep-07 18:30N 40°08' W 009°15'3 6.6
2017-Sep-07 18:00N 40°07' W 009°20'3 6.6
2017-Sep-07 17:30N 40°07' W 009°24'3 6.5
2017-Sep-07 17:00N 40°07' W 009°28'3 6.4
2017-Sep-07 16:30N 40°07' W 009°32'3 5.6
2017-Sep-07 16:00N 40°07' W 009°36'0 0.7
2017-Sep-07 15:30N 40°06' W 009°36'1 1.1
2017-Sep-07 15:00N 40°06' W 009°36'1 1.2
2017-Sep-07 14:24N 40°05' W 009°36'1 1.2
2017-Sep-07 13:56N 40°05' W 009°36'1 1.1
2017-Sep-07 13:29N 40°04' W 009°36'0 1.0
2017-Sep-07 13:00N 40°04' W 009°36'0 0.9
2017-Sep-07 12:30N 40°03' W 009°36'0 1.0
2017-Sep-07 12:00N 40°03' W 009°36'1 1.0
2017-Sep-07 11:29N 40°02' W 009°36'0 1.0
2017-Sep-07 11:00N 40°02' W 009°36'1 1.0
2017-Sep-07 10:30N 40°01' W 009°36'0 1.0
2017-Sep-07 10:00N 40°01' W 009°36'1 2.5
2017-Sep-07 09:26N 40°02' W 009°37'2 3.8
2017-Sep-07 08:59N 40°03' W 009°38'4 0.6
2017-Sep-07 02:07N 40°08' W 009°37'0 3.4
2017-Sep-07 01:59N 40°08' W 009°37'  

Dump ship's entire track history